Royalton, Minnesota
Current Conditions -  °F | °C
As of 6:13 AM on Monday 26 Jan 2015 (Local Time) from KLXL Reporting Station
Overcast Overcast  
Wind Chill: 24°   Ceiling: 900
Heat Index: 30°   Visibility: 10mi
Dew Point: 27°   Wind: 6mph
Humidity: 86%   Direction: 180°S
Pressure: 29.66"   Gusts: NA
Location:  45.83°N, 94.29°W
Report Text: KLXL 261213Z AUTO 18005KT 10SM BKN009 OVC018 M01/M03 A2966 RMK AO2
Loading
Personal Weather Stations






























Interactive Weather Map New forecast layout! Learn more

10-Day Weather Forecast

Advertisements
Track Severe Weather on mobile